Time;durP1;ratioP1;P1;durP2;ratioP2;P2;SDS_P1;SDS_P2;PMS_P1;PMS_P2;Temp;Humidity;BMP_temperature;BMP_pressure;BME280_temperature;BME280_humidity;BME280_pressure;Samples;Min_cycle;Max_cycle;Signal;HPM_P1;HPM_P2
2022/12/08 00:01:18;;;;;;;3.92;2.05;;;;;;;;;;4956701;28;20076;-69
2022/12/08 00:03:44;;;;;;;3.08;1.80;;;;;;;;;;4947937;28;20054;-68
2022/12/08 00:11:45;;;;;;;4.07;1.60;;;;;;;;;;4974706;28;20054;-69
2022/12/08 00:14:12;;;;;;;5.10;2.10;;;;;;;;;;4954656;28;20118;-69
2022/12/08 00:16:39;;;;;;;3.53;1.75;;;;;;;;;;4940282;28;20051;-70
2022/12/08 00:19:06;;;;;;;6.10;2.08;;;;;;;;;;4965761;28;20157;-69
2022/12/08 00:21:32;;;;;;;4.88;1.90;;;;;;;;;;4960226;28;20064;-69
2022/12/08 00:23:59;;;;;;;6.18;2.00;;;;;;;;;;4979929;28;20058;-69
2022/12/08 00:26:26;;;;;;;4.75;2.00;;;;;;;;;;4973739;28;20064;-69
2022/12/08 00:28:54;;;;;;;4.80;1.85;;;;;;;;;;4995324;28;20058;-69
2022/12/08 00:31:21;;;;;;;4.30;1.85;;;;;;;;;;4949207;28;20053;-69
2022/12/08 00:33:48;;;;;;;4.07;1.80;;;;;;;;;;4951917;28;20058;-69
2022/12/08 00:36:15;;;;;;;5.10;1.98;;;;;;;;;;4990217;28;20074;-68
2022/12/08 00:38:43;;;;;;;4.78;1.92;;;;;;;;;;4988288;28;20058;-69
2022/12/08 00:41:10;;;;;;;;;;;;;;;;;;4924660;28;20045;-68
2022/12/08 00:43:37;;;;;;;5.68;2.00;;;;;;;;;;4949895;28;19932;-68
2022/12/08 00:46:05;;;;;;;4.80;1.50;;;;;;;;;;4991606;28;20050;-69
2022/12/08 00:48:32;;;;;;;2.75;1.40;;;;;;;;;;4974072;28;20054;-68
2022/12/08 00:50:58;;;;;;;4.55;1.80;;;;;;;;;;4945429;28;20108;-68
2022/12/08 00:53:26;;;;;;;3.17;1.67;;;;;;;;;;4969385;28;20146;-68
2022/12/08 00:55:52;;;;;;;4.88;1.77;;;;;;;;;;4979620;28;20149;-69
2022/12/08 00:58:19;;;;;;;3.80;1.70;;;;;;;;;;4970115;28;20078;-69
2022/12/08 01:00:46;;;;;;;5.22;2.00;;;;;;;;;;4965497;28;20065;-69
2022/12/08 01:03:14;;;;;;;4.55;1.50;;;;;;;;;;4961358;28;20110;-69
2022/12/08 01:05:40;;;;;;;3.85;1.70;;;;;;;;;;4944647;28;20085;-69
2022/12/08 01:08:07;;;;;;;5.47;1.80;;;;;;;;;;4965154;28;20069;-68
2022/12/08 01:10:35;;;;;;;3.28;1.70;;;;;;;;;;4958109;28;20106;-69
2022/12/08 01:13:13;;;;;;;3.15;1.50;;;;;;;;;;4961038;28;20058;-68
2022/12/08 01:15:40;;;;;;;2.22;1.20;;;;;;;;;;4965589;28;20068;-69
2022/12/08 01:18:07;;;;;;;4.53;2.05;;;;;;;;;;4966334;28;20059;-68
2022/12/08 01:20:35;;;;;;;3.50;1.63;;;;;;;;;;4926039;28;20060;-68
2022/12/08 01:23:01;;;;;;;3.85;1.80;;;;;;;;;;4988139;28;20065;-69
2022/12/08 01:25:28;;;;;;;3.28;1.58;;;;;;;;;;4972144;28;20111;-69
2022/12/08 01:27:55;;;;;;;4.10;2.05;;;;;;;;;;4962043;28;20054;-68
2022/12/08 01:30:22;;;;;;;3.72;1.67;;;;;;;;;;4922617;28;20081;-69
2022/12/08 01:32:49;;;;;;;5.70;1.95;;;;;;;;;;4960445;28;20061;-69
2022/12/08 01:35:16;;;;;;;3.80;1.95;;;;;;;;;;4978100;28;20076;-69
2022/12/08 01:37:44;;;;;;;6.03;2.00;;;;;;;;;;4981937;28;20053;-69
2022/12/08 01:40:11;;;;;;;4.22;1.88;;;;;;;;;;4972390;28;20078;-69
2022/12/08 01:42:38;;;;;;;5.10;2.20;;;;;;;;;;4972856;28;20141;-68
2022/12/08 01:45:07;;;;;;;4.90;2.20;;;;;;;;;;4973207;28;20046;-69
2022/12/08 01:47:39;;;;;;;4.80;2.35;;;;;;;;;;4947108;28;20053;-68
2022/12/08 01:50:08;;;;;;;4.22;2.15;;;;;;;;;;4954007;28;20045;-69
2022/12/08 01:52:37;;;;;;;3.97;2.20;;;;;;;;;;4946360;28;20058;-68
2022/12/08 01:55:07;;;;;;;5.45;2.30;;;;;;;;;;4948183;28;20056;-69
2022/12/08 01:57:35;;;;;;;5.65;2.30;;;;;;;;;;4953915;28;20061;-68
2022/12/08 02:00:04;;;;;;;5.82;2.25;;;;;;;;;;4941818;28;20058;-69
2022/12/08 02:02:30;;;;;;;;;;;;;;;;;;4950544;28;20050;-68
2022/12/08 02:04:57;;;;;;;4.50;2.03;;;;;;;;;;4975425;28;19925;-69
2022/12/08 02:07:24;;;;;;;4.10;2.08;;;;;;;;;;4957492;28;20084;-69
2022/12/08 02:09:51;;;;;;;5.20;2.22;;;;;;;;;;4984253;28;20146;-69
2022/12/08 02:12:19;;;;;;;4.70;2.35;;;;;;;;;;4972150;28;20140;-69
2022/12/08 02:14:45;;;;;;;5.20;2.27;;;;;;;;;;5000098;28;20065;-68
2022/12/08 02:17:18;;;;;;;6.38;2.38;;;;;;;;;;4987851;28;20314;-69
2022/12/08 02:19:54;;;;;;;5.32;2.40;;;;;;;;;;4937490;28;20063;-68
2022/12/08 02:22:24;;;;;;;5.82;2.40;;;;;;;;;;4991268;28;20054;-67
2022/12/08 02:24:53;;;;;;;4.13;2.10;;;;;;;;;;4977802;28;20070;-68
2022/12/08 02:27:28;;;;;;;6.03;2.60;;;;;;;;;;4986272;28;20054;-68
2022/12/08 02:30:10;;;;;;;5.10;2.30;;;;;;;;;;4967597;28;20188;-68
2022/12/08 02:32:51;;;;;;;5.72;2.55;;;;;;;;;;4973846;28;20046;-68
2022/12/08 02:35:23;;;;;;;5.45;2.35;;;;;;;;;;4910504;28;20108;-67
2022/12/08 02:37:52;;;;;;;5.47;2.22;;;;;;;;;;4960088;28;20056;-68
2022/12/08 02:40:22;;;;;;;5.10;2.45;;;;;;;;;;4977329;28;20062;-68
2022/12/08 02:42:52;;;;;;;6.10;2.65;;;;;;;;;;4977210;28;20053;-68
2022/12/08 02:45:20;;;;;;;4.88;2.17;;;;;;;;;;4978913;28;20058;-68
2022/12/08 02:47:48;;;;;;;4.70;2.30;;;;;;;;;;4975996;28;20064;-67
2022/12/08 02:55:25;;;;;;;5.82;2.60;;;;;;;;;;4990218;28;20046;-67
2022/12/08 02:57:57;;;;;;;5.60;2.65;;;;;;;;;;4946481;28;20161;-68
2022/12/08 03:00:25;;;;;;;5.88;2.72;;;;;;;;;;4953261;28;20049;-68
2022/12/08 03:02:59;;;;;;;5.88;2.88;;;;;;;;;;4890231;28;20047;-67
2022/12/08 03:05:33;;;;;;;5.10;2.63;;;;;;;;;;4939915;28;20056;-68
2022/12/08 03:08:07;;;;;;;6.72;2.65;;;;;;;;;;4983861;28;20333;-69
2022/12/08 03:10:38;;;;;;;4.40;2.33;;;;;;;;;;4994443;28;20371;-69
2022/12/08 03:13:06;;;;;;;6.03;2.30;;;;;;;;;;4958518;28;20060;-68
2022/12/08 03:15:34;;;;;;;5.72;2.75;;;;;;;;;;4959041;28;21448;-68
2022/12/08 03:18:01;;;;;;;7.03;2.22;;;;;;;;;;4970904;28;20057;-68
2022/12/08 03:20:29;;;;;;;4.95;2.50;;;;;;;;;;4971286;28;20050;-68
2022/12/08 03:22:59;;;;;;;7.03;2.60;;;;;;;;;;4959260;28;20236;-68
2022/12/08 03:25:27;;;;;;;6.32;2.50;;;;;;;;;;4978460;28;20260;-69
2022/12/08 03:27:56;;;;;;;3.88;2.03;;;;;;;;;;4989091;28;20058;-69
2022/12/08 03:30:22;;;;;;;5.03;2.28;;;;;;;;;;4983815;28;20066;-66
2022/12/08 03:32:54;;;;;;;5.70;2.58;;;;;;;;;;4951556;28;20141;-68
2022/12/08 03:35:24;;;;;;;5.55;2.42;;;;;;;;;;4959140;28;20080;-68
2022/12/08 03:37:50;;;;;;;4.47;2.15;;;;;;;;;;4955834;28;20119;-68
2022/12/08 03:40:19;;;;;;;5.35;2.22;;;;;;;;;;4958896;28;20054;-68
2022/12/08 03:42:46;;;;;;;5.82;1.98;;;;;;;;;;4953879;28;20058;-68
2022/12/08 03:45:14;;;;;;;5.57;2.03;;;;;;;;;;4961776;28;20053;-68
2022/12/08 03:47:40;;;;;;;5.47;1.90;;;;;;;;;;4983889;28;20081;-68
2022/12/08 03:50:08;;;;;;;4.47;2.10;;;;;;;;;;4969800;28;20057;-69
2022/12/08 03:52:35;;;;;;;5.68;1.90;;;;;;;;;;4995464;28;20176;-68
2022/12/08 03:55:01;;;;;;;3.28;1.88;;;;;;;;;;4963139;28;20057;-67
2022/12/08 03:57:28;;;;;;;3.45;1.88;;;;;;;;;;4996166;28;20096;-67
2022/12/08 03:59:55;;;;;;;4.35;1.60;;;;;;;;;;5002138;28;20049;-68
2022/12/08 04:02:23;;;;;;;4.07;2.00;;;;;;;;;;5009214;28;20157;-68
2022/12/08 04:04:50;;;;;;;3.88;1.90;;;;;;;;;;4954460;28;20061;-69
2022/12/08 04:07:17;;;;;;;4.07;1.60;;;;;;;;;;4974941;28;20062;-68
2022/12/08 04:09:43;;;;;;;3.47;1.77;;;;;;;;;;4985432;28;20065;-69
2022/12/08 04:12:10;;;;;;;4.10;1.70;;;;;;;;;;4988750;28;20123;-67
2022/12/08 04:14:36;;;;;;;3.22;1.55;;;;;;;;;;4988422;28;20057;-69
2022/12/08 04:17:08;;;;;;;3.00;1.55;;;;;;;;;;4990133;28;20057;-68
2022/12/08 04:19:36;;;;;;;2.65;1.45;;;;;;;;;;4992510;28;20277;-67
2022/12/08 04:22:02;;;;;;;3.25;1.55;;;;;;;;;;5000837;28;20065;-68
2022/12/08 04:24:29;;;;;;;3.42;1.35;;;;;;;;;;4983271;28;20053;-67
2022/12/08 04:26:56;;;;;;;3.08;1.40;;;;;;;;;;4987491;28;20107;-67
2022/12/08 04:29:22;;;;;;;3.00;1.40;;;;;;;;;;4983730;28;20053;-69
2022/12/08 04:31:49;;;;;;;3.50;1.48;;;;;;;;;;5003506;28;20509;-68
2022/12/08 04:34:16;;;;;;;1.88;1.20;;;;;;;;;;4957174;28;20081;-68
2022/12/08 04:36:44;;;;;;;2.15;1.23;;;;;;;;;;4968080;28;20487;-67
2022/12/08 04:39:12;;;;;;;3.47;1.50;;;;;;;;;;4972012;28;20057;-68
2022/12/08 04:41:38;;;;;;;2.92;1.40;;;;;;;;;;4978890;28;20551;-69
2022/12/08 04:44:05;;;;;;;2.53;1.23;;;;;;;;;;4990979;28;20223;-68
2022/12/08 04:46:34;;;;;;;2.97;1.33;;;;;;;;;;5016719;28;20053;-69
2022/12/08 04:49:00;;;;;;;;;;;;;;;;;;4995464;28;20107;-68
2022/12/08 04:51:27;;;;;;;2.42;1.17;;;;;;;;;;5008391;28;19925;-69
2022/12/08 04:53:55;;;;;;;2.55;1.40;;;;;;;;;;4991390;28;20053;-68
2022/12/08 04:56:22;;;;;;;1.95;1.13;;;;;;;;;;4988355;28;20148;-68
2022/12/08 04:58:49;;;;;;;2.88;1.40;;;;;;;;;;4998245;28;20410;-68
2022/12/08 05:01:15;;;;;;;3.15;1.50;;;;;;;;;;4961711;28;20046;-68
2022/12/08 05:03:42;;;;;;;2.78;1.80;;;;;;;;;;4972526;28;20708;-68
2022/12/08 05:06:10;;;;;;;3.13;1.33;;;;;;;;;;5007061;28;20053;-68
2022/12/08 05:08:37;;;;;;;2.65;1.20;;;;;;;;;;4963210;28;20050;-68
2022/12/08 05:11:07;;;;;;;2.22;1.27;;;;;;;;;;4968404;28;20046;-68
2022/12/08 05:13:33;;;;;;;4.95;1.50;;;;;;;;;;4982709;28;20065;-67
2022/12/08 05:16:04;;;;;;;2.38;1.27;;;;;;;;;;5002288;28;20071;-68
2022/12/08 05:18:30;;;;;;;2.42;1.10;;;;;;;;;;4997918;28;20083;-68
2022/12/08 05:21:00;;;;;;;1.60;1.15;;;;;;;;;;4994269;28;20080;-67
2022/12/08 05:23:27;;;;;;;2.35;1.25;;;;;;;;;;4936058;28;20106;-69
2022/12/08 05:25:54;;;;;;;2.08;1.10;;;;;;;;;;4994991;28;20048;-68
2022/12/08 05:28:22;;;;;;;2.63;1.05;;;;;;;;;;4983596;28;20057;-68
2022/12/08 05:30:49;;;;;;;1.33;0.88;;;;;;;;;;4980696;28;20054;-69
2022/12/08 05:33:16;;;;;;;3.22;1.10;;;;;;;;;;4940635;28;20053;-69
2022/12/08 05:35:43;;;;;;;2.35;1.15;;;;;;;;;;4975880;28;20057;-68
2022/12/08 05:38:10;;;;;;;1.98;1.10;;;;;;;;;;4997610;28;20095;-69
2022/12/08 05:40:38;;;;;;;4.57;0.90;;;;;;;;;;4998633;28;20356;-68
2022/12/08 05:43:10;;;;;;;1.63;0.73;;;;;;;;;;4991982;28;20095;-68
2022/12/08 05:45:40;;;;;;;2.60;0.95;;;;;;;;;;4946136;28;20143;-68
2022/12/08 05:48:06;;;;;;;1.52;1.00;;;;;;;;;;4942174;28;20050;-68
2022/12/08 05:50:33;;;;;;;2.00;1.02;;;;;;;;;;4977294;28;20057;-68
2022/12/08 05:52:59;;;;;;;5.60;0.88;;;;;;;;;;4979915;28;20109;-69
2022/12/08 05:55:26;;;;;;;1.40;0.82;;;;;;;;;;4980297;28;20063;-68
2022/12/08 05:57:53;;;;;;;0.88;0.70;;;;;;;;;;4991186;28;20073;-68
2022/12/08 06:00:22;;;;;;;2.20;0.73;;;;;;;;;;4984977;28;20057;-68
2022/12/08 06:02:49;;;;;;;;;;;;;;;;;;4973369;28;20086;-67
2022/12/08 06:05:17;;;;;;;0.50;0.50;;;;;;;;;;4952762;28;19925;-68
2022/12/08 06:07:44;;;;;;;2.47;0.93;;;;;;;;;;4980994;28;20080;-69
2022/12/08 06:10:11;;;;;;;1.95;1.20;;;;;;;;;;4995191;28;20054;-69
2022/12/08 06:12:41;;;;;;;1.95;1.10;;;;;;;;;;4978116;28;20049;-69
2022/12/08 06:15:13;;;;;;;2.13;0.90;;;;;;;;;;4960036;28;20057;-69
2022/12/08 06:17:42;;;;;;;2.50;0.90;;;;;;;;;;4966138;28;20107;-70
2022/12/08 06:20:09;;;;;;;2.92;1.10;;;;;;;;;;4984465;28;20112;-69
2022/12/08 06:22:37;;;;;;;3.65;0.90;;;;;;;;;;4981172;28;20049;-70
2022/12/08 06:25:11;;;;;;;2.20;0.70;;;;;;;;;;4989298;28;20094;-69
2022/12/08 06:27:37;;;;;;;1.00;0.70;;;;;;;;;;4997545;28;20149;-69
2022/12/08 06:30:04;;;;;;;1.88;0.95;;;;;;;;;;4976521;28;20065;-70
2022/12/08 06:32:31;;;;;;;1.90;0.93;;;;;;;;;;4992621;28;20609;-68
2022/12/08 06:34:58;;;;;;;5.22;0.98;;;;;;;;;;4970696;28;20053;-69
2022/12/08 06:37:24;;;;;;;2.47;1.00;;;;;;;;;;4991555;28;20058;-68
2022/12/08 06:39:54;;;;;;;2.22;1.00;;;;;;;;;;4989644;28;20117;-68
2022/12/08 06:45:07;;;;;;;2.45;1.13;;;;;;;;;;4974062;28;20053;-67
2022/12/08 06:47:36;;;;;;;2.17;1.10;;;;;;;;;;4981116;28;20090;-68
2022/12/08 06:50:07;;;;;;;2.00;0.88;;;;;;;;;;4978280;28;20053;-68
2022/12/08 06:52:34;;;;;;;3.03;0.98;;;;;;;;;;4948439;28;20046;-67
2022/12/08 06:55:05;;;;;;;3.40;1.33;;;;;;;;;;4940829;28;20049;-67
2022/12/08 06:57:34;;;;;;;2.40;1.10;;;;;;;;;;4962943;28;20054;-68
2022/12/08 07:00:01;;;;;;;2.70;1.23;;;;;;;;;;4978424;28;20053;-69
2022/12/08 07:02:28;;;;;;;3.33;1.05;;;;;;;;;;4986461;28;20057;-67
2022/12/08 07:04:55;;;;;;;2.92;1.00;;;;;;;;;;4936834;28;20046;-67
2022/12/08 07:07:22;;;;;;;2.28;0.93;;;;;;;;;;4973530;28;20073;-67
2022/12/08 07:09:49;;;;;;;3.30;1.20;;;;;;;;;;4986022;28;20049;-67
2022/12/08 07:12:18;;;;;;;4.93;1.20;;;;;;;;;;4994914;28;20041;-67
2022/12/08 07:14:46;;;;;;;1.90;1.00;;;;;;;;;;4933802;28;20508;-69
2022/12/08 07:17:13;;;;;;;;;;;;;;;;;;4973939;28;20097;-68
2022/12/08 07:19:40;;;;;;;2.80;0.98;;;;;;;;;;5000291;28;19971;-68
2022/12/08 07:22:09;;;;;;;3.33;1.15;;;;;;;;;;4986912;28;20113;-68
2022/12/08 07:24:36;;;;;;;1.88;0.93;;;;;;;;;;4995626;28;20060;-68
2022/12/08 07:27:02;;;;;;;1.80;0.90;;;;;;;;;;4996548;28;20095;-68
2022/12/08 07:29:31;;;;;;;1.23;0.85;;;;;;;;;;4992840;28;20055;-68
2022/12/08 07:31:57;;;;;;;2.00;0.98;;;;;;;;;;5015114;28;20061;-67
2022/12/08 07:34:27;;;;;;;2.83;1.02;;;;;;;;;;4991156;28;20057;-68
2022/12/08 07:36:53;;;;;;;2.08;0.82;;;;;;;;;;4974099;28;20060;-67
2022/12/08 07:39:20;;;;;;;2.63;0.90;;;;;;;;;;4987157;28;20387;-67
2022/12/08 07:41:49;;;;;;;1.65;0.80;;;;;;;;;;4991727;28;20057;-67
2022/12/08 07:44:16;;;;;;;1.38;0.90;;;;;;;;;;4936500;28;20157;-68
2022/12/08 07:46:44;;;;;;;2.17;0.88;;;;;;;;;;4956423;28;20092;-68
2022/12/08 07:49:12;;;;;;;1.70;1.02;;;;;;;;;;4977567;28;20064;-68
2022/12/08 07:51:39;;;;;;;1.48;0.75;;;;;;;;;;4930029;28;20062;-68
2022/12/08 07:54:10;;;;;;;1.35;0.80;;;;;;;;;;4955077;28;20049;-69
2022/12/08 07:56:37;;;;;;;1.88;1.10;;;;;;;;;;4887558;28;20046;-68
2022/12/08 07:59:13;;;;;;;2.03;1.10;;;;;;;;;;4992359;28;20046;-68
2022/12/08 08:01:41;;;;;;;2.08;1.00;;;;;;;;;;4963482;28;20054;-68
2022/12/08 08:04:10;;;;;;;2.72;1.00;;;;;;;;;;4980723;28;20054;-68
2022/12/08 08:06:36;;;;;;;1.98;1.00;;;;;;;;;;4927763;28;20078;-67
2022/12/08 08:09:03;;;;;;;1.42;0.70;;;;;;;;;;4984199;28;20068;-68
2022/12/08 08:11:31;;;;;;;2.35;1.02;;;;;;;;;;4978169;28;20179;-68
2022/12/08 08:14:00;;;;;;;1.77;0.88;;;;;;;;;;4983777;28;20120;-68
2022/12/08 08:16:27;;;;;;;2.42;0.82;;;;;;;;;;4924258;28;20169;-68
2022/12/08 08:18:54;;;;;;;1.88;1.02;;;;;;;;;;4985502;28;20421;-69
2022/12/08 08:21:23;;;;;;;1.95;0.90;;;;;;;;;;4963094;28;20089;-67
2022/12/08 08:23:50;;;;;;;;;;;;;;;;;;4962597;28;20137;-67
2022/12/08 08:26:20;;;;;;;1.77;0.80;;;;;;;;;;4947242;28;19961;-67
2022/12/08 08:28:51;;;;;;;0.77;0.60;;;;;;;;;;4970288;28;20135;-67
2022/12/08 08:31:24;;;;;;;2.25;0.90;;;;;;;;;;4994246;28;20551;-67
2022/12/08 08:33:55;;;;;;;1.60;0.80;;;;;;;;;;4977230;28;20046;-68
2022/12/08 08:36:29;;;;;;;2.70;0.90;;;;;;;;;;4996199;28;20055;-67
2022/12/08 08:38:57;;;;;;;1.15;0.77;;;;;;;;;;4985535;28;20065;-68
2022/12/08 08:41:24;;;;;;;1.80;0.90;;;;;;;;;;4976414;28;20056;-67
2022/12/08 08:43:55;;;;;;;3.22;1.00;;;;;;;;;;4975948;28;20117;-68
2022/12/08 08:46:24;;;;;;;1.42;0.70;;;;;;;;;;4983075;28;20109;-68
2022/12/08 08:48:53;;;;;;;1.40;0.77;;;;;;;;;;4934515;28;20050;-68
2022/12/08 08:51:20;;;;;;;2.40;0.85;;;;;;;;;;4943464;28;20160;-69
2022/12/08 08:53:48;;;;;;;1.52;0.75;;;;;;;;;;4943523;28;20119;-67
2022/12/08 08:56:19;;;;;;;1.40;0.77;;;;;;;;;;4940336;28;20053;-67
2022/12/08 08:58:47;;;;;;;2.80;1.00;;;;;;;;;;4938052;28;20068;-67
2022/12/08 09:01:20;;;;;;;3.17;1.00;;;;;;;;;;4961893;28;20156;-68
2022/12/08 09:03:47;;;;;;;1.63;0.80;;;;;;;;;;4977285;28;20103;-68
2022/12/08 09:06:14;;;;;;;1.55;0.82;;;;;;;;;;4935343;28;20065;-67
2022/12/08 09:08:43;;;;;;;2.38;0.85;;;;;;;;;;4926537;28;20060;-68
2022/12/08 09:11:13;;;;;;;;;;;;;;;;;;4976109;28;20148;-68
2022/12/08 09:13:41;;;;;;;1.10;0.80;;;;;;;;;;4959952;28;21704;-67
2022/12/08 09:16:09;;;;;;;2.28;0.82;;;;;;;;;;4929925;28;20076;-68
2022/12/08 09:18:35;;;;;;;4.05;0.90;;;;;;;;;;4954075;28;20062;-67
2022/12/08 09:21:04;;;;;;;1.15;0.73;;;;;;;;;;5005726;28;20061;-70
2022/12/08 09:23:32;;;;;;;1.33;0.68;;;;;;;;;;5007391;28;20391;-71
2022/12/08 09:25:59;;;;;;;2.50;0.82;;;;;;;;;;4964119;28;20140;-71
2022/12/08 09:28:28;;;;;;;2.80;0.88;;;;;;;;;;4938568;28;20137;-70
2022/12/08 09:30:57;;;;;;;0.63;0.55;;;;;;;;;;4954406;28;20049;-70
2022/12/08 09:33:29;;;;;;;1.92;0.77;;;;;;;;;;4935946;28;20050;-70
2022/12/08 09:35:56;;;;;;;1.73;0.80;;;;;;;;;;4980609;28;20053;-71
2022/12/08 09:38:30;;;;;;;1.63;0.60;;;;;;;;;;4987486;28;20418;-70
2022/12/08 09:41:03;;;;;;;1.00;0.70;;;;;;;;;;4991149;28;20057;-70
2022/12/08 09:43:42;;;;;;;1.27;0.63;;;;;;;;;;4991946;28;20049;-71
2022/12/08 09:46:12;;;;;;;1.00;0.75;;;;;;;;;;4967841;28;20048;-70
2022/12/08 09:48:50;;;;;;;0.70;0.50;;;;;;;;;;4997348;28;20057;-71
2022/12/08 09:51:20;;;;;;;1.17;0.50;;;;;;;;;;4994535;28;20053;-71
2022/12/08 09:53:49;;;;;;;1.35;0.60;;;;;;;;;;4977450;28;20319;-70
2022/12/08 09:56:17;;;;;;;0.60;0.47;;;;;;;;;;4927912;28;20139;-70
2022/12/08 09:58:46;;;;;;;1.17;0.63;;;;;;;;;;4949473;28;20054;-70
2022/12/08 10:01:15;;;;;;;0.52;0.50;;;;;;;;;;4939287;28;20420;-72
2022/12/08 10:03:45;;;;;;;1.02;0.50;;;;;;;;;;4940022;28;20053;-70
2022/12/08 10:06:15;;;;;;;0.95;0.70;;;;;;;;;;4960202;28;20058;-70
2022/12/08 10:08:48;;;;;;;1.35;0.70;;;;;;;;;;4960740;28;20054;-71
2022/12/08 10:11:24;;;;;;;1.48;0.60;;;;;;;;;;4991850;28;20081;-70
2022/12/08 10:14:04;;;;;;;1.20;0.63;;;;;;;;;;4966903;28;20062;-70
2022/12/08 10:16:37;;;;;;;0.63;0.45;;;;;;;;;;4981804;28;20200;-70
2022/12/08 10:19:13;;;;;;;1.90;0.70;;;;;;;;;;4943136;28;20508;-70
2022/12/08 10:21:41;;;;;;;1.23;0.60;;;;;;;;;;4928833;28;20060;-71
2022/12/08 10:24:14;;;;;;;0.85;0.50;;;;;;;;;;4984538;28;20053;-71
2022/12/08 10:26:41;;;;;;;1.98;0.70;;;;;;;;;;4963223;28;20059;-70
2022/12/08 10:29:16;;;;;;;1.05;0.60;;;;;;;;;;4950296;28;20059;-71
2022/12/08 10:31:47;;;;;;;1.13;0.55;;;;;;;;;;4967358;28;20057;-71
2022/12/08 10:34:16;;;;;;;0.75;0.50;;;;;;;;;;4993450;28;20170;-70
2022/12/08 10:36:52;;;;;;;2.10;0.60;;;;;;;;;;4968409;28;20057;-70
2022/12/08 10:39:35;;;;;;;1.17;0.60;;;;;;;;;;4969615;28;20389;-70
2022/12/08 10:42:06;;;;;;;1.77;0.80;;;;;;;;;;4999195;28;20053;-71
2022/12/08 10:44:38;;;;;;;1.52;0.75;;;;;;;;;;4976912;28;20061;-70
2022/12/08 10:47:17;;;;;;;0.93;0.57;;;;;;;;;;4940212;28;20103;-71
2022/12/08 10:49:43;;;;;;;1.38;0.77;;;;;;;;;;4981473;28;20057;-70
2022/12/08 10:52:24;;;;;;;1.63;0.75;;;;;;;;;;4975324;28;20503;-71
2022/12/08 10:54:52;;;;;;;1.35;0.80;;;;;;;;;;4976902;28;20321;-71
2022/12/08 10:57:22;;;;;;;1.25;0.75;;;;;;;;;;4919271;28;20141;-71
2022/12/08 10:59:49;;;;;;;1.15;0.70;;;;;;;;;;5004957;28;20053;-70
2022/12/08 11:02:18;;;;;;;1.85;0.88;;;;;;;;;;4971601;28;20136;-70
2022/12/08 11:04:58;;;;;;;1.13;0.80;;;;;;;;;;4988480;28;20057;-70
2022/12/08 11:07:25;;;;;;;3.03;0.90;;;;;;;;;;4991340;28;20135;-70
2022/12/08 11:10:01;;;;;;;1.30;0.80;;;;;;;;;;4988800;28;20295;-70
2022/12/08 11:12:30;;;;;;;1.52;0.68;;;;;;;;;;4994643;28;20061;-70
2022/12/08 11:15:01;;;;;;;2.65;0.80;;;;;;;;;;5007855;28;20213;-71
2022/12/08 11:17:37;;;;;;;0.80;0.63;;;;;;;;;;4911898;28;20138;-71
2022/12/08 11:20:18;;;;;;;1.67;0.93;;;;;;;;;;4921908;29;20051;-70
2022/12/08 11:22:46;;;;;;;1.35;0.90;;;;;;;;;;4910815;28;20072;-70
2022/12/08 11:25:23;;;;;;;1.85;0.98;;;;;;;;;;4967717;28;20057;-71
2022/12/08 11:27:51;;;;;;;1.47;0.90;;;;;;;;;;4951750;28;20101;-70
2022/12/08 11:30:19;;;;;;;2.30;1.07;;;;;;;;;;4988228;28;20037;-70
2022/12/08 11:32:48;;;;;;;2.53;1.20;;;;;;;;;;4998084;28;20084;-70
2022/12/08 11:35:27;;;;;;;3.03;1.42;;;;;;;;;;4982089;28;20053;-71
2022/12/08 11:37:54;;;;;;;;;;;;;;;;;;4996285;28;20055;-70
2022/12/08 11:40:24;;;;;;;2.77;1.13;;;;;;;;;;5004966;28;19921;-70
2022/12/08 11:42:54;;;;;;;3.95;1.40;;;;;;;;;;4998777;28;20140;-70
2022/12/08 11:45:24;;;;;;;3.22;1.30;;;;;;;;;;4975222;28;20080;-71
2022/12/08 11:47:57;;;;;;;2.67;1.20;;;;;;;;;;4997480;28;20072;-70
2022/12/08 11:50:26;;;;;;;2.70;1.27;;;;;;;;;;4992683;28;20055;-71
2022/12/08 11:52:57;;;;;;;5.30;1.83;;;;;;;;;;4985567;28;20432;-70
2022/12/08 11:55:31;;;;;;;4.03;1.50;;;;;;;;;;4956426;28;20479;-70
2022/12/08 11:58:02;;;;;;;3.92;1.60;;;;;;;;;;4960535;28;20103;-70
2022/12/08 12:00:32;;;;;;;4.43;1.30;;;;;;;;;;4989561;28;20585;-68
2022/12/08 12:03:05;;;;;;;2.65;1.40;;;;;;;;;;4994208;28;20058;-68
2022/12/08 12:05:36;;;;;;;3.25;1.33;;;;;;;;;;4957287;28;20251;-68
2022/12/08 12:08:09;;;;;;;3.35;1.20;;;;;;;;;;4980154;28;20079;-68
2022/12/08 12:10:48;;;;;;;2.03;1.00;;;;;;;;;;4984630;28;20068;-68
2022/12/08 12:13:32;;;;;;;3.67;1.30;;;;;;;;;;4973332;28;20426;-69
2022/12/08 12:16:24;;;;;;;2.95;1.02;;;;;;;;;;4968645;28;20396;-68
2022/12/08 12:18:57;;;;;;;3.67;1.15;;;;;;;;;;4926585;28;20077;-67
2022/12/08 12:21:28;;;;;;;2.85;1.20;;;;;;;;;;4964736;28;20061;-68
2022/12/08 12:23:56;;;;;;;3.05;0.93;;;;;;;;;;4981826;28;20053;-67
2022/12/08 12:26:26;;;;;;;3.08;1.00;;;;;;;;;;4956053;28;20053;-68
2022/12/08 12:28:57;;;;;;;1.63;0.90;;;;;;;;;;4988808;28;20092;-68
2022/12/08 12:31:25;;;;;;;1.20;0.80;;;;;;;;;;4966690;28;20374;-68
2022/12/08 12:33:52;;;;;;;;;;;;;;;;;;4972333;28;20420;-68
2022/12/08 12:36:24;;;;;;;1.10;0.73;;;;;;;;;;4957874;28;19926;-68
2022/12/08 12:39:02;;;;;;;1.88;0.80;;;;;;;;;;4937454;28;20055;-68
2022/12/08 12:41:32;;;;;;;3.85;0.88;;;;;;;;;;4997427;28;20102;-68
2022/12/08 12:44:12;;;;;;;1.50;0.85;;;;;;;;;;5005782;28;20411;-68
2022/12/08 12:46:53;;;;;;;1.63;0.70;;;;;;;;;;4993557;28;20053;-68
2022/12/08 12:49:38;;;;;;;2.45;0.90;;;;;;;;;;4980441;28;22217;-68
2022/12/08 12:52:27;;;;;;;1.83;0.82;;;;;;;;;;4993133;28;20053;-68
2022/12/08 12:55:22;;;;;;;0.60;0.55;;;;;;;;;;4989081;28;20052;-69
2022/12/08 12:57:52;;;;;;;0.82;0.60;;;;;;;;;;4946089;28;20062;-68
2022/12/08 13:00:22;;;;;;;1.42;0.90;;;;;;;;;;4964804;28;20065;-68
2022/12/08 13:02:49;;;;;;;0.82;0.55;;;;;;;;;;4964740;28;20088;-68
2022/12/08 13:05:18;;;;;;;1.50;0.50;;;;;;;;;;4974765;28;20289;-68
2022/12/08 13:07:50;;;;;;;0.55;0.55;;;;;;;;;;4976755;28;20066;-68
2022/12/08 13:10:19;;;;;;;0.75;0.43;;;;;;;;;;4997651;28;20612;-68
2022/12/08 13:13:02;;;;;;;0.60;0.40;;;;;;;;;;4996925;28;20057;-68
2022/12/08 13:15:34;;;;;;;1.15;0.50;;;;;;;;;;4958897;28;20053;-68
2022/12/08 13:18:06;;;;;;;1.30;0.60;;;;;;;;;;4902794;28;20073;-69
2022/12/08 13:20:42;;;;;;;1.80;0.77;;;;;;;;;;4961672;28;20057;-69
2022/12/08 13:23:27;;;;;;;2.03;0.52;;;;;;;;;;4961754;28;20072;-69
2022/12/08 13:26:12;;;;;;;2.78;0.77;;;;;;;;;;4973753;28;20070;-69
2022/12/08 13:29:00;;;;;;;0.63;0.50;;;;;;;;;;4946442;28;20049;-68
2022/12/08 13:31:38;;;;;;;0.90;0.60;;;;;;;;;;4954763;28;20058;-68
2022/12/08 13:34:05;;;;;;;1.13;0.60;;;;;;;;;;4959217;28;20081;-69
2022/12/08 13:36:33;;;;;;;0.77;0.50;;;;;;;;;;4954877;28;20049;-68
2022/12/08 13:39:01;;;;;;;0.90;0.50;;;;;;;;;;4963801;28;20059;-69
2022/12/08 13:41:34;;;;;;;0.80;0.47;;;;;;;;;;4973775;28;20053;-69
2022/12/08 13:44:04;;;;;;;1.85;0.60;;;;;;;;;;5009119;28;20702;-67
2022/12/08 13:46:37;;;;;;;1.83;0.60;;;;;;;;;;4958633;28;20052;-68
2022/12/08 13:49:06;;;;;;;0.80;0.50;;;;;;;;;;4984617;28;20063;-68
2022/12/08 13:51:38;;;;;;;0.45;0.43;;;;;;;;;;4990895;28;20282;-67
2022/12/08 13:54:06;;;;;;;1.80;0.70;;;;;;;;;;4987698;28;20353;-70
2022/12/08 13:56:39;;;;;;;1.42;0.60;;;;;;;;;;4957147;28;20049;-69
2022/12/08 13:59:27;;;;;;;1.17;0.65;;;;;;;;;;4974533;28;20057;-69
2022/12/08 14:01:55;;;;;;;1.65;0.77;;;;;;;;;;4987963;28;20068;-68
2022/12/08 14:04:24;;;;;;;0.93;0.50;;;;;;;;;;4976323;28;20058;-68
2022/12/08 14:06:53;;;;;;;0.98;0.60;;;;;;;;;;4971749;28;20081;-69
2022/12/08 14:09:19;;;;;;;;;;;;;;;;;;4978595;28;20145;-69
2022/12/08 14:11:56;;;;;;;0.45;0.40;;;;;;;;;;4980116;28;20046;-75
2022/12/08 16:43:50;;;;;;;2.45;1.60;;;;;;;;;;6085406;22;3258586;-76
2022/12/08 16:46:22;;;;;;;4.10;1.90;;;;;;;;;;6192421;22;20028;-75
2022/12/08 16:51:31;;;;;;;4.15;1.98;;;;;;;;;;5000193;27;1449036;-74
2022/12/08 16:53:59;;;;;;;6.70;1.92;;;;;;;;;;4983116;28;20049;-76
2022/12/08 16:56:26;;;;;;;3.78;1.65;;;;;;;;;;4954687;28;20046;-75
2022/12/08 17:14:35;;;;;;;3.83;1.63;;;;;;;;;;6246589;22;20402;-75
2022/12/08 17:17:04;;;;;;;4.47;2.17;;;;;;;;;;6213368;23;20071;-76
2022/12/08 17:19:31;;;;;;;7.05;2.40;;;;;;;;;;6089506;23;20320;-75
2022/12/08 17:21:58;;;;;;;4.50;2.00;;;;;;;;;;6052961;23;20072;-75
2022/12/08 17:24:30;;;;;;;4.40;2.17;;;;;;;;;;6088295;23;20052;-76
2022/12/08 17:32:13;;;;;;;5.60;2.38;;;;;;;;;;5027402;27;20499;-73
2022/12/08 17:34:40;;;;;;;4.43;2.30;;;;;;;;;;4955706;28;20064;-73
2022/12/08 17:37:07;;;;;;;5.97;2.55;;;;;;;;;;4974270;28;20054;-76
2022/12/08 17:39:37;;;;;;;5.15;2.40;;;;;;;;;;4889431;28;20162;-71
2022/12/08 17:42:04;;;;;;;4.07;2.00;;;;;;;;;;4867521;28;20138;-75
2022/12/08 17:44:32;;;;;;;4.90;2.20;;;;;;;;;;4905208;28;20071;-73
2022/12/08 17:49:28;;;;;;;4.85;2.30;;;;;;;;;;4904954;28;20051;-75
2022/12/08 17:57:02;;;;;;;5.82;2.80;;;;;;;;;;5053161;27;20126;-71
2022/12/08 17:59:30;;;;;;;4.68;2.25;;;;;;;;;;4951877;28;20111;-73
2022/12/08 18:07:21;;;;;;;6.28;2.78;;;;;;;;;;5029583;27;1512401;-76
2022/12/08 18:10:18;;;;;;;4.97;2.88;;;;;;;;;;5044675;28;20052;-72
2022/12/08 18:12:45;;;;;;;6.07;3.00;;;;;;;;;;5051543;28;20055;-72
2022/12/08 18:15:15;;;;;;;6.78;2.92;;;;;;;;;;5031038;28;20051;-73
2022/12/08 18:17:42;;;;;;;5.97;2.85;;;;;;;;;;4934104;28;20096;-76
2022/12/08 18:33:16;;;;;;;7.15;3.40;;;;;;;;;;4991628;27;20569;-71